Погода Сан Гонкало ду Сапукана неделю

Минас-Жерайс, Бразилия

19 - 25 июля
  • 19июля
    Сегодня
    +9°
    +25°
    Ясно и безоблачно
    ВремяПогодаТемператураВлажностьДавлениеВетер, м/сВероятность осадков
    00:00Ясно и безоблачно+12°C75 %690 мм1.2 м/с5 %
    03:00Ясно и безоблачно+10°C88 %689 мм1.4 м/с5 %
    06:00Ясно и безоблачно+9°C92 %690 мм1.1 м/с5 %
    09:00Ясно и безоблачно+16°C66 %693 мм0.2 м/с5 %
    12:00Ясно и безоблачно+22°C49 %693 мм1.0 м/с5 %
    15:00Ясно и безоблачно+25°C45 %692 мм0.6 м/с5 %
    18:00Ясно и безоблачно+20°C62 %691 мм1.5 м/с5 %
    21:00Ясно и безоблачно+17°C68 %691 мм1.7 м/с5 %
  • 20июля
    Суббота
    +9°
    +25°
    Ясно и безоблачно
    ВремяПогодаТемператураВлажностьДавлениеВетер, м/сВероятность осадков
    00:00Ясно и безоблачно+13°C84 %691 мм1.9 м/с5 %
    03:00Ясно и безоблачно+11°C93 %690 мм1.5 м/с5 %
    06:00Ясно и безоблачно+10°C97 %689 мм1.0 м/с5 %
    09:00Ясно и безоблачно+15°C76 %692 мм0.7 м/с5 %
    12:00Ясно и безоблачно+23°C55 %692 мм1.0 м/с5 %
    15:00Ясно и безоблачно+25°C48 %691 мм1.0 м/с5 %
    18:00Ясно и безоблачно+19°C64 %690 мм1.9 м/с5 %
    21:00Ясно и безоблачно+17°C67 %690 мм3.5 м/с5 %
  • 21июля
    Воскресенье
    +10°
    +24°
    Ясно и безоблачно
    ВремяПогодаТемператураВлажностьДавлениеВетер, м/сВероятность осадков
    00:00Ясно и безоблачно+14°C79 %690 мм3.3 м/с5 %
    03:00Ясно и безоблачно+12°C90 %689 мм1.9 м/с5 %
    06:00Ясно и безоблачно+10°C93 %689 мм1.8 м/с5 %
    09:00Ясно и безоблачно+15°C73 %692 мм1.5 м/с5 %
    12:00Ясно и безоблачно+21°C48 %692 мм1.8 м/с5 %
    15:00Ясно и безоблачно+24°C42 %691 мм1.3 м/с5 %
    18:00Ясно и безоблачно+19°C60 %690 мм1.7 м/с5 %
    21:00Ясно и безоблачно+16°C71 %690 мм1.8 м/с5 %
  • 22июля
    Понедельник
    +12°
    +25°
    Ясно и безоблачно
    ВремяПогодаТемператураВлажностьДавлениеВетер, м/сВероятность осадков
    00:00Ясно и безоблачно+14°C76 %690 мм2.3 м/с5 %
    03:00Ясно и безоблачно+12°C87 %690 мм1.9 м/с5 %
    06:00Ясно и безоблачно+11°C92 %690 мм1.8 м/с5 %
    09:00Ясно и безоблачно+15°C72 %692 мм0.3 м/с5 %
    12:00Ясно и безоблачно+21°C53 %692 мм1.2 м/с5 %
    15:00Ясно и безоблачно+24°C46 %691 мм0.9 м/с5 %
    18:00Ясно и безоблачно+22°C52 %691 мм0.1 м/с5 %
    21:00Ясно и безоблачно+17°C74 %691 мм1.7 м/с5 %
Мы используем cookies
Соглашаюсь